Time;durP1;ratioP1;P1;durP2;ratioP2;P2;SDS_P1;SDS_P2;PMS_P1;PMS_P2;Temp;Humidity;BMP_temperature;BMP_pressure;BME280_temperature;BME280_humidity;BME280_pressure;Samples;Min_cycle;Max_cycle;Signal;HPM_P1;HPM_P2
2024/03/14 00:00:08;;;;;;;;;;;8.60;96.80;;;;;;6275937;22;19927;-77
2024/03/14 00:02:35;;;;;;;;;;;8.60;96.20;;;;;;6274596;22;19956;-78
2024/03/14 00:05:02;;;;;;;;;;;8.60;96.00;;;;;;6275764;22;19919;-78
2024/03/14 00:07:29;;;;;;;;;;;8.60;95.90;;;;;;6274611;22;19949;-77
2024/03/14 00:09:56;;;;;;;;;;;8.60;95.80;;;;;;6275721;22;19923;-78
2024/03/14 00:12:23;;;;;;;;;;;8.70;95.70;;;;;;6274254;22;19923;-78
2024/03/14 00:14:50;;;;;;;;;;;8.70;95.80;;;;;;6275499;22;20320;-78
2024/03/14 00:17:20;;;;;;;;;;;8.70;96.40;;;;;;6274616;22;19920;-77
2024/03/14 00:19:54;;;;;;;;;;;8.70;96.40;;;;;;6274523;22;19994;-78
2024/03/14 00:22:21;;;;;;;;;;;8.70;96.40;;;;;;6275123;22;19969;-77
2024/03/14 00:24:48;;;;;;;;;;;8.70;96.80;;;;;;6275135;22;19923;-77
2024/03/14 00:27:16;;;;;;;;;;;8.70;96.90;;;;;;6274127;22;20236;-77
2024/03/14 00:29:42;;;;;;;;;;;8.70;97.00;;;;;;6275636;22;20312;-77
2024/03/14 00:32:13;;;;;;;;;;;8.70;97.00;;;;;;6274516;22;19923;-77
2024/03/14 00:34:41;;;;;;;;;;;8.70;97.20;;;;;;6275983;22;19983;-78
2024/03/14 00:37:11;;;;;;;;;;;8.70;97.30;;;;;;6275802;22;19926;-78
2024/03/14 00:39:38;;;;;;;;;;;8.60;97.70;;;;;;6274768;22;19919;-77
2024/03/14 00:42:06;;;;;;;;;;;8.60;97.40;;;;;;6275913;22;19920;-78
2024/03/14 00:44:33;;;;;;;;;;;8.60;97.60;;;;;;6274306;22;19919;-78
2024/03/14 00:47:00;;;;;;;;;;;8.60;97.30;;;;;;6274360;22;19930;-77
2024/03/14 00:49:27;;;;;;;;;;;8.60;97.40;;;;;;6274556;22;20279;-77
2024/03/14 00:51:55;;;;;;;;;;;8.60;97.70;;;;;;6274465;22;19924;-78
2024/03/14 00:54:23;;;;;;;;;;;8.60;97.80;;;;;;6275414;22;19923;-78
2024/03/14 00:56:53;;;;;;;;;;;8.60;97.80;;;;;;6274760;22;20002;-77
2024/03/14 00:59:20;;;;;;;;;;;8.60;98.20;;;;;;6275883;22;19923;-77
2024/03/14 01:01:46;;;;;;;;;;;8.60;98.30;;;;;;6275133;22;20388;-78
2024/03/14 01:04:13;;;;;;;;;;;8.60;98.30;;;;;;6274498;22;20362;-77
2024/03/14 01:06:40;;;;;;;;;;;8.60;98.40;;;;;;6274257;22;19961;-78
2024/03/14 01:09:11;;;;;;;;;;;8.60;98.40;;;;;;6274290;22;19919;-78
2024/03/14 01:11:39;;;;;;;;;;;8.60;98.50;;;;;;6275636;22;19919;-78
2024/03/14 01:14:06;;;;;;;;;;;8.70;98.50;;;;;;6276019;22;19958;-77
2024/03/14 01:16:34;;;;;;;;;;;8.60;98.60;;;;;;6274152;22;19953;-78
2024/03/14 01:19:01;;;;;;;;;;;8.60;98.80;;;;;;6275001;22;20022;-78
2024/03/14 01:21:30;;;;;;;;;;;8.60;98.80;;;;;;6274435;22;19923;-78
2024/03/14 01:23:57;;;;;;;;;;;8.60;98.80;;;;;;6276277;22;20271;-78
2024/03/14 01:26:24;;;;;;;;;;;8.60;98.80;;;;;;6276371;22;19923;-77
2024/03/14 01:28:54;;;;;;;;;;;8.60;99.00;;;;;;6276352;22;20331;-77
2024/03/14 01:31:21;;;;;;;;;;;8.60;99.00;;;;;;6277248;22;19981;-78
2024/03/14 01:33:48;;;;;;;;;;;8.60;99.20;;;;;;6277668;22;19923;-78
2024/03/14 01:36:16;;;;;;;;;;;8.60;99.40;;;;;;6277346;22;19923;-77
2024/03/14 01:38:43;;;;;;;;;;;8.60;99.30;;;;;;6276454;22;19919;-77
2024/03/14 01:41:18;;;;;;;;;;;8.60;99.30;;;;;;6276577;22;19973;-78
2024/03/14 01:43:57;;;;;;;;;;;8.60;99.40;;;;;;6276579;22;19919;-78
2024/03/14 01:46:28;;;;;;;;;;;8.60;99.70;;;;;;6277043;22;20279;-77
2024/03/14 01:48:55;;;;;;;;;;;8.60;99.80;;;;;;6277056;22;20244;-78
2024/03/14 01:51:23;;;;;;;;;;;8.60;99.80;;;;;;6276068;22;20339;-78
2024/03/14 01:53:53;;;;;;;;;;;8.60;99.90;;;;;;6277286;22;19923;-78
2024/03/14 01:56:23;;;;;;;;;;;8.60;99.90;;;;;;6276457;22;19923;-78
2024/03/14 01:58:53;;;;;;;;;;;8.60;99.80;;;;;;6275558;22;19949;-77
2024/03/14 02:01:21;;;;;;;;;;;8.60;99.90;;;;;;6276988;22;19930;-78
2024/03/14 02:04:07;;;;;;;;;;;8.60;99.90;;;;;;6276501;22;19923;-78
2024/03/14 02:06:36;;;;;;;;;;;8.60;99.90;;;;;;6275962;22;20379;-78
2024/03/14 02:09:04;;;;;;;;;;;8.60;99.90;;;;;;6276544;22;19927;-78
2024/03/14 02:11:32;;;;;;;;;;;8.70;99.90;;;;;;6276117;22;19923;-78
2024/03/14 02:13:59;;;;;;;;;;;8.70;99.90;;;;;;6275755;22;19923;-77
2024/03/14 02:16:26;;;;;;;;;;;8.70;99.90;;;;;;6276593;22;20740;-77
2024/03/14 02:18:56;;;;;;;;;;;8.70;99.90;;;;;;6276265;22;19994;-78
2024/03/14 02:21:25;;;;;;;;;;;8.60;99.90;;;;;;6275825;22;20244;-77
2024/03/14 02:23:52;;;;;;;;;;;8.60;99.90;;;;;;6277558;22;19941;-78
2024/03/14 02:26:19;;;;;;;;;;;8.60;99.90;;;;;;6276725;22;20219;-78
2024/03/14 02:28:48;;;;;;;;;;;8.60;99.90;;;;;;6276715;22;19954;-78
2024/03/14 02:31:15;;;;;;;;;;;8.60;99.90;;;;;;6275753;22;19926;-78
2024/03/14 02:33:44;;;;;;;;;;;8.60;99.90;;;;;;6275512;22;19919;-78
2024/03/14 02:36:11;;;;;;;;;;;8.60;99.90;;;;;;6275604;22;20324;-77
2024/03/14 02:38:37;;;;;;;;;;;8.60;99.90;;;;;;6275767;22;19954;-77
2024/03/14 02:41:04;;;;;;;;;;;8.60;99.90;;;;;;6275615;22;19973;-77
2024/03/14 02:43:31;;;;;;;;;;;8.60;99.90;;;;;;6275623;22;19923;-78
2024/03/14 02:46:00;;;;;;;;;;;8.60;99.90;;;;;;6275549;22;19919;-78
2024/03/14 02:48:28;;;;;;;;;;;8.60;99.90;;;;;;6276659;22;20324;-78
2024/03/14 02:50:55;;;;;;;;;;;8.60;99.90;;;;;;6275698;22;20297;-78
2024/03/14 02:53:25;;;;;;;;;;;8.60;99.90;;;;;;6276038;22;19919;-78
2024/03/14 02:55:52;;;;;;;;;;;8.60;99.90;;;;;;6275676;22;19923;-78
2024/03/14 02:58:19;;;;;;;;;;;8.60;99.90;;;;;;6276536;22;19962;-77
2024/03/14 03:00:46;;;;;;;;;;;8.60;99.90;;;;;;6275504;22;19930;-78
2024/03/14 03:03:15;;;;;;;;;;;8.60;99.90;;;;;;6275546;22;19930;-77
2024/03/14 03:05:41;;;;;;;;;;;8.60;99.90;;;;;;6275541;22;19958;-78
2024/03/14 03:08:08;;;;;;;;;;;8.60;99.90;;;;;;6275624;22;19929;-78
2024/03/14 03:10:36;;;;;;;;;;;8.60;99.90;;;;;;6275338;22;20304;-78
2024/03/14 03:13:05;;;;;;;;;;;8.60;99.90;;;;;;6276582;22;19919;-78
2024/03/14 03:15:34;;;;;;;;;;;8.60;99.90;;;;;;6275362;22;19929;-78
2024/03/14 03:18:01;;;;;;;;;;;8.60;99.90;;;;;;6276855;22;19990;-78
2024/03/14 03:20:28;;;;;;;;;;;8.60;99.90;;;;;;6275845;22;19927;-78
2024/03/14 03:23:08;;;;;;;;;;;8.60;99.90;;;;;;6275450;22;19967;-77
2024/03/14 03:25:35;;;;;;;;;;;8.60;99.90;;;;;;6276527;22;19951;-78
2024/03/14 03:28:03;;;;;;;;;;;8.60;99.90;;;;;;6275087;22;19927;-78
2024/03/14 03:30:30;;;;;;;;;;;8.60;99.90;;;;;;6276134;22;19929;-76
2024/03/14 03:32:57;;;;;;;;;;;8.60;99.90;;;;;;6275092;22;19919;-76
2024/03/14 03:35:24;;;;;;;;;;;8.60;99.90;;;;;;6276047;22;19923;-76
2024/03/14 03:37:54;;;;;;;;;;;8.60;99.90;;;;;;6275321;22;19977;-76
2024/03/14 03:40:22;;;;;;;;;;;8.60;99.90;;;;;;6274984;22;20318;-76
2024/03/14 03:42:52;;;;;;;;;;;8.60;99.90;;;;;;6276392;22;19923;-76
2024/03/14 03:45:20;;;;;;;;;;;8.60;99.90;;;;;;6275122;22;20380;-76
2024/03/14 03:47:47;;;;;;;;;;;8.60;99.90;;;;;;6275761;22;19977;-76
2024/03/14 03:50:14;;;;;;;;;;;8.60;99.90;;;;;;6275772;22;19954;-76
2024/03/14 03:52:43;;;;;;;;;;;8.60;99.90;;;;;;6275460;22;20522;-76
2024/03/14 03:55:16;;;;;;;;;;;8.60;99.90;;;;;;6274678;22;19919;-76
2024/03/14 03:57:45;;;;;;;;;;;8.60;99.90;;;;;;6274526;22;19923;-76
2024/03/14 04:02:58;;;;;;;;;;;8.60;99.90;;;;;;6276136;22;19919;-76
2024/03/14 04:05:28;;;;;;;;;;;8.60;99.90;;;;;;6274703;22;19930;-77
2024/03/14 04:07:55;;;;;;;;;;;8.60;99.90;;;;;;6274451;22;19923;-76
2024/03/14 04:10:24;;;;;;;;;;;8.50;99.90;;;;;;6274985;22;19919;-76
2024/03/14 04:12:53;;;;;;;;;;;8.50;99.90;;;;;;6274735;22;19919;-76
2024/03/14 04:15:23;;;;;;;;;;;8.60;99.90;;;;;;6274737;22;19920;-77
2024/03/14 04:17:51;;;;;;;;;;;8.60;99.90;;;;;;6274749;22;20362;-76
2024/03/14 04:20:18;;;;;;;;;;;8.60;99.90;;;;;;6274430;22;19919;-76
2024/03/14 04:22:47;;;;;;;;;;;8.60;99.90;;;;;;6275111;22;20283;-76
2024/03/14 04:25:17;;;;;;;;;;;8.60;99.90;;;;;;6275305;22;19923;-76
2024/03/14 04:27:46;;;;;;;;;;;8.60;99.90;;;;;;6275408;22;19938;-76
2024/03/14 04:30:17;;;;;;;;;;;8.60;99.90;;;;;;6275809;22;19926;-76
2024/03/14 04:32:45;;;;;;;;;;;8.60;99.90;;;;;;6275779;22;20228;-77
2024/03/14 04:35:14;;;;;;;;;;;8.60;99.90;;;;;;6274970;22;20248;-77
2024/03/14 04:37:47;;;;;;;;;;;8.60;99.90;;;;;;6274853;22;19919;-76
2024/03/14 04:40:14;;;;;;;;;;;8.60;99.90;;;;;;6274731;22;19923;-78
2024/03/14 04:42:41;;;;;;;;;;;8.60;99.90;;;;;;6274326;22;19977;-76
2024/03/14 04:45:11;;;;;;;;;;;8.60;99.90;;;;;;6275383;22;20305;-77
2024/03/14 04:47:38;;;;;;;;;;;8.60;99.90;;;;;;6273634;22;19965;-77
2024/03/14 04:50:09;;;;;;;;;;;8.60;99.90;;;;;;6274368;22;19923;-77
2024/03/14 04:52:36;;;;;;;;;;;8.60;99.90;;;;;;6276045;22;20249;-77
2024/03/14 04:55:07;;;;;;;;;;;8.60;99.90;;;;;;6274344;22;20002;-77
2024/03/14 04:57:34;;;;;;;;;;;8.60;99.90;;;;;;6274287;22;20320;-78
2024/03/14 05:00:10;;;;;;;;;;;8.60;99.90;;;;;;6276313;22;20220;-79
2024/03/14 05:02:40;;;;;;;;;;;8.60;99.90;;;;;;6277038;22;19919;-79
2024/03/14 05:05:09;;;;;;;;;;;8.60;99.90;;;;;;6276497;22;20091;-80
2024/03/14 05:07:37;;;;;;;;;;;8.60;99.90;;;;;;6276578;22;19923;-78
2024/03/14 05:10:05;;;;;;;;;;;8.70;99.90;;;;;;6276214;22;19927;-78
2024/03/14 05:12:35;;;;;;;;;;;8.70;99.90;;;;;;6276436;22;19949;-80
2024/03/14 05:15:05;;;;;;;;;;;8.70;99.90;;;;;;6276479;22;19930;-79
2024/03/14 05:17:34;;;;;;;;;;;8.70;99.90;;;;;;6277139;22;19930;-80
2024/03/14 05:20:01;;;;;;;;;;;8.70;99.90;;;;;;6277249;22;19951;-78
2024/03/14 05:22:36;;;;;;;;;;;8.70;99.90;;;;;;6277365;22;20001;-78
2024/03/14 05:25:06;;;;;;;;;;;8.80;99.90;;;;;;6276230;22;19919;-77
2024/03/14 05:27:33;;;;;;;;;;;8.80;99.90;;;;;;6276138;22;19923;-78
2024/03/14 05:30:00;;;;;;;;;;;8.80;99.90;;;;;;6276875;22;20653;-77
2024/03/14 05:32:28;;;;;;;;;;;8.80;99.90;;;;;;6276896;22;19934;-78
2024/03/14 05:34:55;;;;;;;;;;;8.80;99.90;;;;;;6276154;22;19994;-77
2024/03/14 05:37:27;;;;;;;;;;;8.80;99.90;;;;;;6277652;22;20335;-77
2024/03/14 05:39:54;;;;;;;;;;;8.80;99.90;;;;;;6275437;22;20194;-78
2024/03/14 05:42:20;;;;;;;;;;;8.90;99.90;;;;;;6277698;22;20236;-77
2024/03/14 05:44:48;;;;;;;;;;;8.90;99.90;;;;;;6276428;22;19919;-78
2024/03/14 05:47:20;;;;;;;;;;;8.90;99.90;;;;;;6276343;22;19942;-78
2024/03/14 05:49:48;;;;;;;;;;;8.90;99.90;;;;;;6277288;22;20260;-79
2024/03/14 05:52:17;;;;;;;;;;;8.90;99.90;;;;;;6276566;22;19924;-78
2024/03/14 05:54:44;;;;;;;;;;;8.90;99.90;;;;;;6277709;22;19924;-78
2024/03/14 05:57:12;;;;;;;;;;;9.00;99.90;;;;;;6277492;22;19919;-78
2024/03/14 05:59:38;;;;;;;;;;;9.00;99.90;;;;;;6277153;22;19930;-78
2024/03/14 06:02:07;;;;;;;;;;;9.00;99.90;;;;;;6276062;22;19919;-78
2024/03/14 06:04:36;;;;;;;;;;;9.00;99.90;;;;;;6275961;22;20331;-79
2024/03/14 06:07:03;;;;;;;;;;;9.10;99.90;;;;;;6276946;22;19931;-79
2024/03/14 06:09:39;;;;;;;;;;;9.10;99.90;;;;;;6276416;22;19920;-79
2024/03/14 06:12:08;;;;;;;;;;;9.20;99.90;;;;;;6277141;22;20003;-78
2024/03/14 06:14:35;;;;;;;;;;;9.20;99.90;;;;;;6275833;22;19919;-78
2024/03/14 06:17:03;;;;;;;;;;;9.20;99.90;;;;;;6277119;22;19923;-78
2024/03/14 06:19:30;;;;;;;;;;;9.20;99.90;;;;;;6276637;22;19934;-78
2024/03/14 06:21:56;;;;;;;;;;;9.20;99.90;;;;;;6276549;22;19919;-79
2024/03/14 06:24:24;;;;;;;;;;;9.20;99.90;;;;;;6275514;22;19937;-79
2024/03/14 06:26:51;;;;;;;;;;;9.20;99.90;;;;;;6276611;22;19942;-79
2024/03/14 06:29:18;;;;;;;;;;;9.30;99.90;;;;;;6275665;22;19920;-79
2024/03/14 06:31:45;;;;;;;;;;;9.30;99.90;;;;;;6275284;22;19923;-79
2024/03/14 06:34:13;;;;;;;;;;;9.30;99.90;;;;;;6275109;22;19919;-78
2024/03/14 06:36:39;;;;;;;;;;;9.30;99.90;;;;;;6274052;22;20268;-79
2024/03/14 06:39:07;;;;;;;;;;;9.30;99.90;;;;;;6275425;22;19945;-79
2024/03/14 06:41:34;;;;;;;;;;;9.30;99.90;;;;;;6276652;22;19977;-79
2024/03/14 06:44:02;;;;;;;;;;;9.30;99.90;;;;;;6275283;22;19931;-80
2024/03/14 06:46:29;;;;;;;;;;;9.30;99.90;;;;;;6275348;22;19923;-79
2024/03/14 06:48:56;;;;;;;;;;;9.30;99.90;;;;;;6274696;22;19977;-79
2024/03/14 06:51:23;;;;;;;;;;;9.40;99.90;;;;;;6275182;22;19919;-79
2024/03/14 06:53:50;;;;;;;;;;;9.40;99.90;;;;;;6274895;22;19923;-79
2024/03/14 06:56:17;;;;;;;;;;;9.40;99.90;;;;;;6275523;22;19937;-79
2024/03/14 06:58:46;;;;;;;;;;;9.40;99.90;;;;;;6275340;22;19930;-80
2024/03/14 07:01:15;;;;;;;;;;;9.50;99.90;;;;;;6274919;22;19949;-79
2024/03/14 07:03:42;;;;;;;;;;;9.50;99.90;;;;;;6276468;22;19930;-79
2024/03/14 07:06:12;;;;;;;;;;;9.50;99.90;;;;;;6276391;22;19919;-79
2024/03/14 07:08:39;;;;;;;;;;;9.60;99.90;;;;;;6275674;22;19998;-79
2024/03/14 07:11:06;;;;;;;;;;;9.60;99.90;;;;;;6274690;22;19919;-79
2024/03/14 07:13:35;;;;;;;;;;;9.60;99.90;;;;;;6274409;22;20224;-79
2024/03/14 07:16:09;;;;;;;;;;;9.70;99.90;;;;;;6274751;22;19927;-80
2024/03/14 07:18:36;;;;;;;;;;;9.70;99.90;;;;;;6275668;22;19927;-81
2024/03/14 07:21:06;;;;;;;;;;;9.80;99.90;;;;;;6275462;22;19927;-80
2024/03/14 07:23:33;;;;;;;;;;;9.80;99.90;;;;;;6275817;22;19977;-81
2024/03/14 07:26:02;;;;;;;;;;;9.90;99.90;;;;;;6275538;22;19930;-81
2024/03/14 07:28:32;;;;;;;;;;;9.90;99.90;;;;;;6275245;22;19969;-80
2024/03/14 07:30:59;;;;;;;;;;;10.00;99.90;;;;;;6274687;22;20002;-81
2024/03/14 07:33:26;;;;;;;;;;;10.10;99.90;;;;;;6274711;22;19925;-81
2024/03/14 07:35:54;;;;;;;;;;;10.20;99.90;;;;;;6274564;22;19919;-81
2024/03/14 07:38:27;;;;;;;;;;;10.20;99.90;;;;;;6274455;22;19928;-81
2024/03/14 07:40:55;;;;;;;;;;;10.30;99.90;;;;;;6275871;22;20311;-81
2024/03/14 07:43:22;;;;;;;;;;;10.30;99.90;;;;;;6274944;22;19955;-81
2024/03/14 07:45:49;;;;;;;;;;;10.40;99.90;;;;;;6274494;22;19919;-81
2024/03/14 07:48:17;;;;;;;;;;;10.40;99.90;;;;;;6274901;22;19919;-81
2024/03/14 07:50:45;;;;;;;;;;;10.40;99.90;;;;;;6274120;22;19923;-81
2024/03/14 07:53:14;;;;;;;;;;;10.40;99.90;;;;;;6275475;22;19919;-80
2024/03/14 07:55:41;;;;;;;;;;;10.30;99.90;;;;;;6274308;22;19919;-81
2024/03/14 07:58:08;;;;;;;;;;;10.30;99.90;;;;;;6274115;22;19946;-81
2024/03/14 08:00:36;;;;;;;;;;;10.30;99.90;;;;;;6269288;22;20290;-80
2024/03/14 08:03:04;;;;;;;;;;;10.30;99.90;;;;;;6273390;22;19926;-81
2024/03/14 08:05:31;;;;;;;;;;;10.20;99.90;;;;;;6273925;22;19958;-81
2024/03/14 08:08:01;;;;;;;;;;;10.30;99.90;;;;;;6275544;22;19957;-81
2024/03/14 08:10:45;;;;;;;;;;;10.30;99.90;;;;;;6273612;22;19981;-81
2024/03/14 08:13:20;;;;;;;;;;;10.40;99.90;;;;;;6272031;22;19923;-81
2024/03/14 08:15:52;;;;;;;;;;;10.50;99.90;;;;;;6273588;22;20270;-81
2024/03/14 08:18:20;;;;;;;;;;;10.60;99.90;;;;;;6276038;22;20685;-81
2024/03/14 08:20:47;;;;;;;;;;;10.60;99.90;;;;;;6274897;22;20025;-80
2024/03/14 08:23:20;;;;;;;;;;;10.70;99.90;;;;;;6274677;22;19938;-80
2024/03/14 08:25:47;;;;;;;;;;;10.80;99.90;;;;;;6275306;22;19924;-81
2024/03/14 08:28:16;;;;;;;;;;;11.00;99.90;;;;;;6273400;22;19934;-81
2024/03/14 08:30:45;;;;;;;;;;;11.10;99.90;;;;;;6273648;22;19930;-80
2024/03/14 08:33:13;;;;;;;;;;;11.30;99.90;;;;;;6275028;22;19923;-80
2024/03/14 08:35:42;;;;;;;;;;;11.50;99.70;;;;;;6274880;22;20198;-81
2024/03/14 08:38:13;;;;;;;;;;;11.50;99.30;;;;;;6275513;22;19930;-81
2024/03/14 08:40:44;;;;;;;;;;;11.60;98.70;;;;;;6273810;22;19919;-80
2024/03/14 08:43:16;;;;;;;;;;;11.70;98.60;;;;;;6273265;22;19923;-80
2024/03/14 08:45:43;;;;;;;;;;;11.90;98.40;;;;;;6275041;22;19930;-81
2024/03/14 08:48:15;;;;;;;;;;;12.00;97.90;;;;;;6274705;22;19930;-81
2024/03/14 08:50:42;;;;;;;;;;;12.20;97.90;;;;;;6273476;22;20262;-80
2024/03/14 08:53:12;;;;;;;;;;;12.40;97.70;;;;;;6272419;22;19920;-80
2024/03/14 08:55:45;;;;;;;;;;;12.60;97.20;;;;;;6274353;22;20009;-80
2024/03/14 08:58:12;;;;;;;;;;;12.80;96.50;;;;;;6275501;22;20347;-80
2024/03/14 09:00:39;;;;;;;;;;;12.90;95.30;;;;;;6274137;22;20006;-80
2024/03/14 09:03:06;;;;;;;;;;;12.90;93.80;;;;;;6273556;22;20295;-80
2024/03/14 09:05:34;;;;;;;;;;;12.80;93.70;;;;;;6274589;22;20486;-80
2024/03/14 09:08:04;;;;;;;;;;;12.80;93.70;;;;;;6275747;22;19988;-80
2024/03/14 09:10:33;;;;;;;;;;;13.00;94.00;;;;;;6274608;22;19953;-80
2024/03/14 09:13:01;;;;;;;;;;;13.10;94.20;;;;;;6272888;22;19919;-80
2024/03/14 09:15:29;;;;;;;;;;;13.10;93.70;;;;;;6271896;22;20424;-81
2024/03/14 09:17:56;;;;;;;;;;;13.10;93.80;;;;;;6274019;22;19923;-81
2024/03/14 09:20:23;;;;;;;;;;;13.10;93.60;;;;;;6275692;22;19919;-80
2024/03/14 09:22:58;;;;;;;;;;;13.10;93.80;;;;;;6274114;22;19933;-80
2024/03/14 09:25:28;;;;;;;;;;;13.10;93.50;;;;;;6273267;22;19919;-80
2024/03/14 09:27:56;;;;;;;;;;;13.10;94.00;;;;;;6272650;22;19929;-81
2024/03/14 09:30:23;;;;;;;;;;;13.30;94.40;;;;;;6272707;22;20309;-81
2024/03/14 09:32:50;;;;;;;;;;;13.40;93.90;;;;;;6272672;22;19923;-81
2024/03/14 09:35:25;;;;;;;;;;;13.60;92.90;;;;;;6273358;22;20224;-81
2024/03/14 09:37:54;;;;;;;;;;;13.50;92.40;;;;;;6273042;22;19919;-81
2024/03/14 09:40:21;;;;;;;;;;;13.50;92.50;;;;;;6273210;22;20014;-81
2024/03/14 09:42:58;;;;;;;;;;;13.60;93.00;;;;;;6273104;22;20228;-81
2024/03/14 09:45:28;;;;;;;;;;;13.60;93.10;;;;;;6273071;22;19930;-81
2024/03/14 09:47:56;;;;;;;;;;;13.70;93.60;;;;;;6276018;22;19923;-81
2024/03/14 09:50:26;;;;;;;;;;;13.90;94.30;;;;;;6275263;22;20344;-81
2024/03/14 09:52:54;;;;;;;;;;;14.40;94.00;;;;;;6274800;22;20332;-81
2024/03/14 09:55:23;;;;;;;;;;;14.90;92.20;;;;;;6274222;22;19931;-81
2024/03/14 09:57:53;;;;;;;;;;;15.40;89.40;;;;;;6274697;22;19927;-81
2024/03/14 10:00:21;;;;;;;;;;;15.50;85.80;;;;;;6274742;22;19923;-81
2024/03/14 10:02:49;;;;;;;;;;;15.50;85.30;;;;;;6274619;22;19925;-81
2024/03/14 10:05:16;;;;;;;;;;;15.50;82.20;;;;;;6274215;22;19920;-81
2024/03/14 10:07:45;;;;;;;;;;;15.80;82.30;;;;;;6274646;22;19951;-81
2024/03/14 10:10:14;;;;;;;;;;;16.10;80.10;;;;;;6274504;22;19919;-81
2024/03/14 10:12:52;;;;;;;;;;;16.10;79.20;;;;;;6275183;22;19974;-81
2024/03/14 10:15:20;;;;;;;;;;;16.10;79.60;;;;;;6274554;22;19958;-81
2024/03/14 10:17:47;;;;;;;;;;;16.10;77.40;;;;;;6273720;22;20002;-81
2024/03/14 10:20:17;;;;;;;;;;;16.10;78.40;;;;;;6274155;22;19958;-81
2024/03/14 10:22:51;;;;;;;;;;;16.20;79.50;;;;;;6274212;22;19929;-81
2024/03/14 10:25:23;;;;;;;;;;;16.40;78.50;;;;;;6274157;22;19925;-81
2024/03/14 10:27:54;;;;;;;;;;;16.90;77.50;;;;;;6274877;22;20304;-80
2024/03/14 10:30:36;;;;;;;;;;;18.20;76.10;;;;;;6274426;22;20310;-81
2024/03/14 10:33:06;;;;;;;;;;;19.60;70.20;;;;;;6274851;22;19923;-81
2024/03/14 10:35:36;;;;;;;;;;;19.90;64.30;;;;;;6274186;22;19919;-81
2024/03/14 10:38:08;;;;;;;;;;;19.60;63.70;;;;;;6274286;22;19998;-81
2024/03/14 10:40:37;;;;;;;;;;;19.60;65.40;;;;;;6275433;22;19919;-81
2024/03/14 10:43:09;;;;;;;;;;;19.40;65.00;;;;;;6274513;22;19958;-81
2024/03/14 10:45:36;;;;;;;;;;;19.20;62.60;;;;;;6275191;22;19927;-81
2024/03/14 10:48:07;;;;;;;;;;;19.10;63.70;;;;;;6274511;22;20002;-81
2024/03/14 10:50:36;;;;;;;;;;;19.30;65.80;;;;;;6275272;22;19923;-80
2024/03/14 10:53:05;;;;;;;;;;;19.70;65.10;;;;;;6274925;22;20300;-81
2024/03/14 10:55:33;;;;;;;;;;;20.20;61.70;;;;;;6275633;22;19920;-81
2024/03/14 10:58:04;;;;;;;;;;;20.70;61.60;;;;;;6274242;22;20301;-81
2024/03/14 11:00:33;;;;;;;;;;;20.90;59.60;;;;;;6273610;22;19972;-81
2024/03/14 11:03:01;;;;;;;;;;;20.90;58.80;;;;;;6274420;22;19934;-81
2024/03/14 11:05:28;;;;;;;;;;;20.70;57.60;;;;;;6275217;22;19920;-80
2024/03/14 11:07:56;;;;;;;;;;;20.60;57.60;;;;;;6274524;22;19923;-81
2024/03/14 11:10:28;;;;;;;;;;;20.40;58.70;;;;;;6275815;22;20005;-81
2024/03/14 11:12:55;;;;;;;;;;;20.80;59.10;;;;;;6274571;22;19919;-82
2024/03/14 11:15:24;;;;;;;;;;;21.20;58.00;;;;;;6274843;22;19923;-81
2024/03/14 11:17:55;;;;;;;;;;;21.00;56.90;;;;;;6274638;22;19919;-81
2024/03/14 11:20:25;;;;;;;;;;;20.60;56.90;;;;;;6275376;22;20308;-81
2024/03/14 11:22:55;;;;;;;;;;;20.50;57.60;;;;;;6275311;22;19976;-81
2024/03/14 11:25:24;;;;;;;;;;;20.70;58.70;;;;;;6274018;22;19919;-81
2024/03/14 11:27:52;;;;;;;;;;;20.90;59.10;;;;;;6274356;22;19927;-81
2024/03/14 11:30:21;;;;;;;;;;;20.90;58.50;;;;;;6273968;22;19919;-81
2024/03/14 11:32:54;;;;;;;;;;;20.90;58.40;;;;;;6274170;22;19925;-81
2024/03/14 11:35:36;;;;;;;;;;;21.50;59.10;;;;;;6275093;22;20316;-81
2024/03/14 11:38:15;;;;;;;;;;;22.90;56.90;;;;;;6273997;22;20002;-82
2024/03/14 11:40:45;;;;;;;;;;;24.60;54.80;;;;;;6274627;22;19919;-82
2024/03/14 11:43:15;;;;;;;;;;;25.00;51.00;;;;;;6274245;22;19927;-81
2024/03/14 11:45:42;;;;;;;;;;;24.80;50.10;;;;;;6273838;22;19989;-81
2024/03/14 11:48:15;;;;;;;;;;;25.00;50.90;;;;;;6273448;22;19923;-81
2024/03/14 11:50:42;;;;;;;;;;;25.50;49.70;;;;;;6273553;22;19952;-82
2024/03/14 11:53:09;;;;;;;;;;;26.70;49.30;;;;;;6274725;22;19938;-82
2024/03/14 11:55:38;;;;;;;;;;;28.30;48.30;;;;;;6274653;22;19938;-82
2024/03/14 11:58:17;;;;;;;;;;;29.60;42.80;;;;;;6276195;22;19923;-81
2024/03/14 12:00:47;;;;;;;;;;;29.40;40.60;;;;;;6274593;22;19919;-82
2024/03/14 12:03:15;;;;;;;;;;;28.80;41.00;;;;;;6274438;22;20007;-82
2024/03/14 12:05:51;;;;;;;;;;;27.80;41.80;;;;;;6273043;22;19919;-82
2024/03/14 12:08:22;;;;;;;;;;;26.90;43.00;;;;;;6246370;22;20163;-81
2024/03/14 12:10:52;;;;;;;;;;;26.60;45.10;;;;;;6273077;22;19994;-82
2024/03/14 12:13:26;;;;;;;;;;;26.00;45.50;;;;;;6273092;22;19976;-82
2024/03/14 12:16:03;;;;;;;;;;;25.40;46.80;;;;;;6274092;22;20273;-82
2024/03/14 12:18:31;;;;;;;;;;;25.10;48.70;;;;;;6273421;22;19982;-82
2024/03/14 12:21:02;;;;;;;;;;;27.20;48.30;;;;;;6273176;22;19927;-82
2024/03/14 12:23:32;;;;;;;;;;;30.30;43.70;;;;;;6275126;22;20228;-82
2024/03/14 12:26:06;;;;;;;;;;;33.40;38.60;;;;;;6273534;22;19919;-82
2024/03/14 12:28:34;;;;;;;;;;;34.20;32.50;;;;;;6275665;22;19930;-82
2024/03/14 12:31:02;;;;;;;;;;;33.40;33.00;;;;;;6276636;22;20589;-82
2024/03/14 12:33:30;;;;;;;;;;;32.30;32.90;;;;;;6276080;22;19998;-82
2024/03/14 12:35:58;;;;;;;;;;;30.80;35.20;;;;;;6274535;22;20010;-82
2024/03/14 12:38:27;;;;;;;;;;;29.40;37.40;;;;;;6275222;22;20232;-82
2024/03/14 12:40:57;;;;;;;;;;;28.30;39.20;;;;;;6273763;22;20317;-81
2024/03/14 12:43:30;;;;;;;;;;;27.30;41.70;;;;;;6274390;22;19920;-82
2024/03/14 12:46:00;;;;;;;;;;;27.10;41.70;;;;;;6274764;22;19951;-82
2024/03/14 12:48:28;;;;;;;;;;;26.60;41.90;;;;;;6274305;22;19973;-82
2024/03/14 12:51:08;;;;;;;;;;;25.80;43.40;;;;;;6273954;22;19919;-81
2024/03/14 12:53:35;;;;;;;;;;;25.00;45.10;;;;;;6275370;22;19919;-82
2024/03/14 12:56:04;;;;;;;;;;;24.50;47.30;;;;;;6274863;22;19923;-82
2024/03/14 12:58:32;;;;;;;;;;;25.10;46.90;;;;;;6273819;22;19919;-82
2024/03/14 13:01:00;;;;;;;;;;;25.60;47.20;;;;;;6273978;22;19931;-82
2024/03/14 13:03:27;;;;;;;;;;;27.40;46.00;;;;;;6274721;22;19990;-82
2024/03/14 13:05:57;;;;;;;;;;;29.80;40.60;;;;;;6275156;22;19920;-82
2024/03/14 13:08:26;;;;;;;;;;;31.60;37.60;;;;;;6271453;22;19935;-82
2024/03/14 13:11:08;;;;;;;;;;;33.60;33.90;;;;;;6273493;22;19919;-82
2024/03/14 13:13:38;;;;;;;;;;;35.30;29.70;;;;;;6276006;22;19924;-82
2024/03/14 13:16:19;;;;;;;;;;;36.40;29.10;;;;;;6274711;22;19930;-82
2024/03/14 13:18:53;;;;;;;;;;;36.40;28.20;;;;;;6274943;22;19927;-80
2024/03/14 13:21:25;;;;;;;;;;;35.90;28.50;;;;;;6276725;22;19919;-84
2024/03/14 13:23:52;;;;;;;;;;;35.40;28.00;;;;;;6278860;22;19923;-84
2024/03/14 13:26:23;;;;;;;;;;;34.70;28.60;;;;;;6274164;22;19923;-81
2024/03/14 13:28:54;;;;;;;;;;;34.10;28.70;;;;;;6276696;22;20300;-82
2024/03/14 13:31:21;;;;;;;;;;;33.70;29.80;;;;;;6276464;22;20255;-82
2024/03/14 13:33:48;;;;;;;;;;;33.70;29.80;;;;;;6276012;22;20223;-81
2024/03/14 13:36:16;;;;;;;;;;;34.00;29.60;;;;;;6276074;22;19969;-81
2024/03/14 13:38:43;;;;;;;;;;;33.60;29.20;;;;;;6276788;22;19931;-81
2024/03/14 13:41:12;;;;;;;;;;;32.90;29.90;;;;;;6275547;22;19923;-81
2024/03/14 13:43:39;;;;;;;;;;;32.30;30.30;;;;;;6274115;22;19925;-81
2024/03/14 13:46:08;;;;;;;;;;;32.00;30.80;;;;;;6274945;22;20019;-82
2024/03/14 13:48:36;;;;;;;;;;;32.00;30.30;;;;;;6275453;22;19973;-81
2024/03/14 13:51:03;;;;;;;;;;;31.50;31.50;;;;;;6273616;22;19941;-82
2024/03/14 13:53:31;;;;;;;;;;;31.00;32.40;;;;;;6275367;22;20343;-81
2024/03/14 13:55:59;;;;;;;;;;;30.60;32.50;;;;;;6274675;22;19919;-82
2024/03/14 13:58:27;;;;;;;;;;;30.30;33.50;;;;;;6273879;22;20316;-82
2024/03/14 14:00:56;;;;;;;;;;;30.40;34.10;;;;;;6275170;22;19954;-82
2024/03/14 14:03:23;;;;;;;;;;;30.30;33.50;;;;;;6275499;22;19933;-82
2024/03/14 14:05:53;;;;;;;;;;;29.80;32.90;;;;;;6276841;22;19919;-82
2024/03/14 14:08:24;;;;;;;;;;;28.80;35.00;;;;;;6275203;22;20343;-82
2024/03/14 14:10:51;;;;;;;;;;;27.90;36.70;;;;;;6275241;22;19923;-82
2024/03/14 14:13:22;;;;;;;;;;;26.90;38.80;;;;;;6274352;22;19919;-82
2024/03/14 14:15:48;;;;;;;;;;;26.00;40.10;;;;;;6273036;22;19923;-82
2024/03/14 14:18:16;;;;;;;;;;;25.10;41.40;;;;;;6275456;22;20225;-81
2024/03/14 14:20:44;;;;;;;;;;;24.40;42.70;;;;;;6275519;22;20303;-81
2024/03/14 14:23:15;;;;;;;;;;;23.60;44.70;;;;;;6275592;22;19994;-81
2024/03/14 14:25:44;;;;;;;;;;;23.00;46.10;;;;;;6275780;22;19950;-82
2024/03/14 14:28:11;;;;;;;;;;;22.40;47.20;;;;;;6275337;22;19943;-81
2024/03/14 14:30:41;;;;;;;;;;;21.80;48.00;;;;;;6276452;22;19924;-81
2024/03/14 14:33:09;;;;;;;;;;;21.30;49.00;;;;;;6275237;22;20335;-81
2024/03/14 14:35:36;;;;;;;;;;;20.90;50.60;;;;;;6276469;22;19927;-82